Time;durP1;ratioP1;P1;durP2;ratioP2;P2;SDS_P1;SDS_P2;PMS_P1;PMS_P2;Temp;Humidity;BMP_temperature;BMP_pressure;BME280_temperature;BME280_humidity;BME280_pressure;Samples;Min_cycle;Max_cycle;Signal;HPM_P1;HPM_P2
2023/11/08 00:00:22;;;;;;;3.75;2.67;;;7.20;99.90;;;;;;5049174;28;20090;-62
2023/11/08 00:02:49;;;;;;;4.43;2.63;;;7.20;99.90;;;;;;5051799;28;20053;-65
2023/11/08 00:05:16;;;;;;;3.58;2.97;;;7.20;99.90;;;;;;5052704;28;20069;-60
2023/11/08 00:07:43;;;;;;;9.65;3.47;;;7.20;99.90;;;;;;5048314;28;20116;-63
2023/11/08 00:10:12;;;;;;;3.28;2.58;;;7.20;99.90;;;;;;5053127;28;20399;-71
2023/11/08 00:12:40;;;;;;;3.85;2.58;;;7.10;99.90;;;;;;5050230;28;20049;-61
2023/11/08 00:15:08;;;;;;;3.83;2.42;;;7.10;99.90;;;;;;5055881;28;20037;-61
2023/11/08 00:17:36;;;;;;;4.03;3.25;;;7.10;99.90;;;;;;5056749;28;20135;-61
2023/11/08 00:20:09;;;;;;;4.57;4.18;;;7.10;99.90;;;;;;5050627;28;20116;-65
2023/11/08 00:22:36;;;;;;;4.50;3.10;;;7.10;99.90;;;;;;5048636;28;20515;-61
2023/11/08 00:25:04;;;;;;;7.97;4.70;;;7.10;99.90;;;;;;5048154;28;20140;-62
2023/11/08 00:27:31;;;;;;;7.18;3.03;;;7.10;99.90;;;;;;5050941;28;20060;-67
2023/11/08 00:29:58;;;;;;;5.85;3.30;;;7.10;99.90;;;;;;5050553;28;20045;-61
2023/11/08 00:32:25;;;;;;;7.53;3.42;;;7.10;99.90;;;;;;5036553;28;20076;-64
2023/11/08 00:34:52;;;;;;;6.95;2.83;;;7.10;99.90;;;;;;5055640;28;20570;-65
2023/11/08 00:37:19;;;;;;;4.55;3.33;;;7.10;99.90;;;;;;5034627;28;20049;-62
2023/11/08 00:39:47;;;;;;;4.28;2.72;;;7.10;99.90;;;;;;5046687;28;20037;-60
2023/11/08 00:42:14;;;;;;;5.78;3.45;;;7.10;99.90;;;;;;5056633;28;20072;-69
2023/11/08 00:44:41;;;;;;;7.25;4.00;;;7.10;99.90;;;;;;5050915;28;20526;-61
2023/11/08 00:47:08;;;;;;;10.90;4.55;;;7.00;99.90;;;;;;5051210;28;20541;-65
2023/11/08 00:49:36;;;;;;;8.82;4.50;;;7.00;99.90;;;;;;5048839;28;20447;-68
2023/11/08 00:52:03;;;;;;;4.53;4.10;;;7.00;99.90;;;;;;5052214;28;20038;-64
2023/11/08 00:54:33;;;;;;;9.27;4.72;;;7.10;99.90;;;;;;5048361;28;20048;-61
2023/11/08 00:57:00;;;;;;;4.82;3.92;;;7.10;99.90;;;;;;5046357;28;20045;-62
2023/11/08 00:59:27;;;;;;;12.60;4.43;;;7.20;99.90;;;;;;5047332;28;20102;-65
2023/11/08 01:01:54;;;;;;;7.07;4.60;;;7.20;99.90;;;;;;5053213;28;20563;-62
2023/11/08 01:04:21;;;;;;;6.55;4.15;;;7.20;99.90;;;;;;5048961;28;20449;-61
2023/11/08 01:06:48;;;;;;;4.82;4.32;;;7.20;99.90;;;;;;5048468;28;20044;-61
2023/11/08 01:09:15;;;;;;;5.50;4.85;;;7.30;99.90;;;;;;5052195;28;20045;-63
2023/11/08 01:11:42;;;;;;;6.88;5.43;;;7.30;99.90;;;;;;5048563;28;20069;-62
2023/11/08 01:14:10;;;;;;;7.30;5.00;;;7.30;99.90;;;;;;5031694;28;20040;-61
2023/11/08 01:16:37;;;;;;;11.02;5.68;;;7.30;99.90;;;;;;5047321;28;20053;-61
2023/11/08 01:19:04;;;;;;;11.77;6.28;;;7.40;99.90;;;;;;5049117;28;20045;-62
2023/11/08 01:21:32;;;;;;;9.30;5.90;;;7.40;99.90;;;;;;5034275;28;20068;-66
2023/11/08 01:24:00;;;;;;;9.73;6.10;;;7.40;99.90;;;;;;5049874;28;20068;-65
2023/11/08 01:26:27;;;;;;;9.85;6.30;;;7.50;99.90;;;;;;5053751;28;20067;-65
2023/11/08 01:28:54;;;;;;;16.00;7.65;;;7.50;99.90;;;;;;5058362;28;20441;-61
2023/11/08 01:31:20;;;;;;;8.95;6.18;;;7.50;99.90;;;;;;5048377;28;20036;-64
2023/11/08 01:33:47;;;;;;;11.57;6.68;;;7.50;99.90;;;;;;5053672;28;20052;-61
2023/11/08 01:36:14;;;;;;;14.50;7.10;;;7.50;99.90;;;;;;5046256;28;20386;-63
2023/11/08 01:38:41;;;;;;;8.32;6.88;;;7.50;99.90;;;;;;5050061;28;20131;-66
2023/11/08 01:41:08;;;;;;;8.85;7.40;;;7.50;99.90;;;;;;5049856;28;20068;-64
2023/11/08 01:43:36;;;;;;;12.20;7.20;;;7.50;99.90;;;;;;5052376;28;20714;-64
2023/11/08 01:46:22;;;;;;;9.13;6.28;;;7.60;99.90;;;;;;5021773;28;20110;-62
2023/11/08 01:48:52;;;;;;;9.85;7.55;;;7.50;99.90;;;;;;5055482;28;20048;-63
2023/11/08 01:51:20;;;;;;;10.38;6.45;;;7.60;99.90;;;;;;5048503;28;20375;-61
2023/11/08 01:53:49;;;;;;;13.93;7.68;;;7.60;99.90;;;;;;5047192;28;20375;-61
2023/11/08 01:56:17;;;;;;;16.58;7.07;;;7.60;99.90;;;;;;5040212;28;20041;-61
2023/11/08 01:58:45;;;;;;;11.43;6.35;;;7.70;99.90;;;;;;5027068;28;20049;-63
2023/11/08 02:01:12;;;;;;;9.27;5.75;;;7.70;99.90;;;;;;5027310;28;20037;-61
2023/11/08 02:03:41;;;;;;;7.80;7.00;;;7.70;99.90;;;;;;5043789;28;20124;-64
2023/11/08 02:06:13;;;;;;;9.82;7.07;;;7.70;99.90;;;;;;5012243;28;20796;-61
2023/11/08 02:08:40;;;;;;;9.13;6.50;;;7.70;99.90;;;;;;5025965;28;20048;-61
2023/11/08 02:11:08;;;;;;;11.77;7.10;;;7.70;99.90;;;;;;5010020;28;20183;-66
2023/11/08 02:13:35;;;;;;;8.20;5.63;;;7.70;99.90;;;;;;5039820;28;20025;-61
2023/11/08 02:16:03;;;;;;;7.95;6.97;;;7.70;99.90;;;;;;5018258;28;20045;-61
2023/11/08 02:18:33;;;;;;;12.20;7.88;;;7.70;99.90;;;;;;5032325;28;20136;-61
2023/11/08 02:21:01;;;;;;;11.07;6.60;;;7.70;99.90;;;;;;5036237;28;20072;-65
2023/11/08 02:23:31;;;;;;;11.38;7.50;;;7.70;99.90;;;;;;5034360;28;20393;-62
2023/11/08 02:25:59;;;;;;;10.68;6.20;;;7.70;99.90;;;;;;5035137;28;20048;-60
2023/11/08 02:28:27;;;;;;;10.45;6.28;;;7.70;99.90;;;;;;5032933;28;20049;-66
2023/11/08 02:30:54;;;;;;;13.05;6.53;;;7.60;99.90;;;;;;5030404;28;20053;-61
2023/11/08 02:33:26;;;;;;;12.48;7.18;;;7.60;99.90;;;;;;5031859;28;20053;-62
2023/11/08 02:35:54;;;;;;;8.68;6.35;;;7.60;99.90;;;;;;5027402;28;20065;-64
2023/11/08 02:38:21;;;;;;;9.40;6.40;;;7.60;99.90;;;;;;5033930;28;20046;-61
2023/11/08 02:40:48;;;;;;;8.75;6.80;;;7.60;99.90;;;;;;5018814;28;20046;-62
2023/11/08 02:43:16;;;;;;;12.30;6.90;;;7.60;99.90;;;;;;5019739;28;20045;-65
2023/11/08 02:45:44;;;;;;;7.65;6.35;;;7.50;99.90;;;;;;5014004;28;20053;-64
2023/11/08 02:48:11;;;;;;;10.20;6.75;;;7.50;99.90;;;;;;5031731;28;20080;-62
2023/11/08 02:50:39;;;;;;;21.48;7.57;;;7.50;99.90;;;;;;5039721;28;20049;-64
2023/11/08 02:53:07;;;;;;;13.18;8.15;;;7.40;99.90;;;;;;5033768;28;20037;-63
2023/11/08 02:55:35;;;;;;;6.50;5.57;;;7.50;99.90;;;;;;5033325;28;20050;-62
2023/11/08 02:58:02;;;;;;;8.38;5.78;;;7.50;99.90;;;;;;5030783;28;20468;-61
2023/11/08 03:00:30;;;;;;;6.82;6.10;;;7.40;99.90;;;;;;5015426;28;20056;-65
2023/11/08 03:02:57;;;;;;;10.30;6.93;;;7.40;99.90;;;;;;5034336;28;20051;-61
2023/11/08 03:05:25;;;;;;;9.35;6.68;;;7.40;99.90;;;;;;5035886;28;20060;-62
2023/11/08 03:07:53;;;;;;;12.18;6.00;;;7.40;99.90;;;;;;5027097;28;20048;-64
2023/11/08 03:10:21;;;;;;;7.07;5.40;;;7.40;99.90;;;;;;5028107;28;20128;-61
2023/11/08 03:12:52;;;;;;;6.93;4.85;;;7.40;99.90;;;;;;5033432;28;20073;-62
2023/11/08 03:15:21;;;;;;;8.95;6.22;;;7.40;99.90;;;;;;5032810;28;20048;-61
2023/11/08 03:17:51;;;;;;;6.88;5.53;;;7.40;99.90;;;;;;5036914;28;20391;-65
2023/11/08 03:20:19;;;;;;;10.73;5.85;;;7.40;99.90;;;;;;5037263;28;20468;-61
2023/11/08 03:22:46;;;;;;;10.10;7.20;;;7.40;99.90;;;;;;5014372;28;20722;-61
2023/11/08 03:25:16;;;;;;;9.32;7.55;;;7.40;99.90;;;;;;5029568;28;20488;-63
2023/11/08 03:27:46;;;;;;;7.00;6.22;;;7.40;99.90;;;;;;5029491;28;20056;-62
2023/11/08 03:30:16;;;;;;;6.63;6.03;;;7.40;99.90;;;;;;5041187;28;20490;-63
2023/11/08 03:32:44;;;;;;;10.32;6.53;;;7.50;99.90;;;;;;5030683;28;20290;-60
2023/11/08 03:35:13;;;;;;;12.00;5.88;;;7.50;99.90;;;;;;5031909;28;20041;-63
2023/11/08 03:37:43;;;;;;;11.15;6.45;;;7.50;99.90;;;;;;5036225;28;20045;-61
2023/11/08 03:40:11;;;;;;;9.43;5.18;;;7.50;99.90;;;;;;5026833;28;20477;-62
2023/11/08 03:42:40;;;;;;;7.73;6.93;;;7.50;99.90;;;;;;5028593;28;20049;-61
2023/11/08 03:45:08;;;;;;;12.10;6.35;;;7.50;99.90;;;;;;5036609;28;20045;-67
2023/11/08 03:47:37;;;;;;;12.85;7.43;;;7.50;99.90;;;;;;5029830;28;20045;-63
2023/11/08 03:50:05;;;;;;;9.27;6.93;;;7.50;99.90;;;;;;5038414;28;20505;-68
2023/11/08 03:52:32;;;;;;;11.68;7.22;;;7.50;99.90;;;;;;5035137;28;20041;-63
2023/11/08 03:54:59;;;;;;;11.05;7.28;;;7.50;99.90;;;;;;5028900;28;20042;-65
2023/11/08 03:57:27;;;;;;;14.45;8.35;;;7.60;99.90;;;;;;5029884;28;20395;-66
2023/11/08 03:59:54;;;;;;;14.20;9.52;;;7.60;99.90;;;;;;5027531;28;20066;-62
2023/11/08 04:02:21;;;;;;;15.27;9.07;;;7.60;99.90;;;;;;5030552;28;20456;-61
2023/11/08 04:04:49;;;;;;;16.88;9.57;;;7.60;99.90;;;;;;5033926;28;20068;-61
2023/11/08 04:07:18;;;;;;;15.35;9.18;;;7.70;99.90;;;;;;5050595;28;20045;-64
2023/11/08 04:09:45;;;;;;;12.20;8.60;;;7.70;99.90;;;;;;5050094;28;20037;-61
2023/11/08 04:12:13;;;;;;;15.70;8.20;;;7.70;99.90;;;;;;5053492;28;20037;-61
2023/11/08 04:14:40;;;;;;;13.68;9.27;;;7.70;99.90;;;;;;5052994;28;20048;-61
2023/11/08 04:17:10;;;;;;;13.32;9.20;;;7.80;99.90;;;;;;5054627;28;20037;-64
2023/11/08 04:19:38;;;;;;;14.13;8.90;;;7.80;99.90;;;;;;5054683;28;20056;-65
2023/11/08 04:22:05;;;;;;;17.63;10.02;;;7.90;99.90;;;;;;5049398;28;20521;-63
2023/11/08 04:24:33;;;;;;;15.18;8.52;;;7.90;99.90;;;;;;5050435;28;20388;-61
2023/11/08 04:27:02;;;;;;;18.10;9.35;;;7.90;99.90;;;;;;5056244;28;20044;-66
2023/11/08 04:29:31;;;;;;;12.80;8.88;;;7.90;99.90;;;;;;5048355;28;20040;-64
2023/11/08 04:31:58;;;;;;;13.88;8.38;;;7.90;99.90;;;;;;5052831;28;20144;-63
2023/11/08 04:34:25;;;;;;;16.58;8.80;;;7.90;99.90;;;;;;5050998;28;20050;-61
2023/11/08 04:36:52;;;;;;;12.93;9.30;;;8.00;99.90;;;;;;5048615;28;20065;-64
2023/11/08 04:39:21;;;;;;;11.93;8.18;;;8.00;99.90;;;;;;5046065;28;20037;-65
2023/11/08 04:41:50;;;;;;;12.02;9.18;;;8.00;99.90;;;;;;5046176;28;20044;-67
2023/11/08 04:44:17;;;;;;;16.27;9.18;;;8.00;99.90;;;;;;5051391;28;20391;-62
2023/11/08 04:46:44;;;;;;;11.75;8.02;;;7.90;99.90;;;;;;5051972;28;20037;-61
2023/11/08 04:49:12;;;;;;;10.30;8.52;;;7.90;99.90;;;;;;5053777;28;20045;-66
2023/11/08 04:51:39;;;;;;;15.63;8.82;;;7.90;99.90;;;;;;5046753;28;20080;-73
2023/11/08 04:54:07;;;;;;;11.10;7.93;;;7.90;99.90;;;;;;5042975;28;20479;-61
2023/11/08 04:56:34;;;;;;;15.15;8.98;;;7.90;99.90;;;;;;5043375;28;20048;-61
2023/11/08 04:59:01;;;;;;;16.20;9.63;;;7.90;99.90;;;;;;5045927;28;20041;-69
2023/11/08 05:01:28;;;;;;;14.90;8.73;;;7.90;99.90;;;;;;5052748;28;20114;-64
2023/11/08 05:03:58;;;;;;;14.15;8.75;;;7.90;99.90;;;;;;5050803;28;20179;-63
2023/11/08 05:06:25;;;;;;;13.52;8.43;;;8.00;99.90;;;;;;5047243;28;20080;-62
2023/11/08 05:08:52;;;;;;;14.50;9.48;;;8.00;99.90;;;;;;5051866;28;20087;-62
2023/11/08 05:11:20;;;;;;;14.68;9.15;;;8.00;99.90;;;;;;5053078;28;20041;-63
2023/11/08 05:13:47;;;;;;;13.93;9.13;;;8.00;99.90;;;;;;5035407;28;20112;-62
2023/11/08 05:16:20;;;;;;;16.83;8.45;;;8.00;99.90;;;;;;5055492;28;20045;-62
2023/11/08 05:18:48;;;;;;;13.00;8.45;;;8.00;99.90;;;;;;5050465;28;20045;-63
2023/11/08 05:21:15;;;;;;;11.15;8.02;;;8.00;99.90;;;;;;5055818;28;20053;-61
2023/11/08 05:23:42;;;;;;;14.57;9.60;;;8.00;99.90;;;;;;5033707;28;20044;-61
2023/11/08 05:26:09;;;;;;;13.00;8.73;;;7.90;99.90;;;;;;5049414;28;20099;-62
2023/11/08 05:28:37;;;;;;;11.60;7.63;;;7.90;99.90;;;;;;5049790;28;20548;-63
2023/11/08 05:31:04;;;;;;;10.90;7.35;;;7.90;99.90;;;;;;5049560;28;20069;-66
2023/11/08 05:33:31;;;;;;;14.10;7.38;;;7.90;99.90;;;;;;5050670;28;20068;-62
2023/11/08 05:35:59;;;;;;;8.90;6.90;;;7.80;99.90;;;;;;5055068;28;20037;-61
2023/11/08 05:38:26;;;;;;;12.88;7.43;;;7.80;99.90;;;;;;5050242;28;20049;-64
2023/11/08 05:40:53;;;;;;;13.00;6.75;;;7.80;99.90;;;;;;5049951;28;20049;-66
2023/11/08 05:43:24;;;;;;;12.00;7.32;;;7.80;99.90;;;;;;5050196;28;20234;-65
2023/11/08 05:45:51;;;;;;;11.40;6.65;;;7.90;99.90;;;;;;5046746;28;20049;-63
2023/11/08 05:48:19;;;;;;;14.27;7.47;;;7.80;99.90;;;;;;5046105;28;20041;-63
2023/11/08 05:50:46;;;;;;;8.88;7.63;;;7.80;99.90;;;;;;5053552;28;20119;-64
2023/11/08 05:53:14;;;;;;;12.75;7.07;;;7.90;99.90;;;;;;5050962;28;20041;-61
2023/11/08 05:55:41;;;;;;;18.15;8.45;;;7.80;99.90;;;;;;5050974;28;20033;-61
2023/11/08 05:58:09;;;;;;;11.77;7.05;;;7.80;99.90;;;;;;5053113;28;20047;-64
2023/11/08 06:00:41;;;;;;;7.68;6.88;;;7.80;99.90;;;;;;5053866;28;20037;-61
2023/11/08 06:03:08;;;;;;;11.90;8.25;;;7.80;99.90;;;;;;5050958;28;20047;-61
2023/11/08 06:05:35;;;;;;;13.43;6.47;;;7.80;99.90;;;;;;5051718;28;20502;-64
2023/11/08 06:08:03;;;;;;;9.25;6.65;;;7.70;99.90;;;;;;5051422;28;20428;-62
2023/11/08 06:10:32;;;;;;;8.68;6.82;;;7.70;99.90;;;;;;5048300;28;20067;-62
2023/11/08 06:12:59;;;;;;;19.83;8.32;;;7.70;99.90;;;;;;5041241;28;20497;-62
2023/11/08 06:15:26;;;;;;;15.82;7.70;;;7.70;99.90;;;;;;5056148;28;20055;-65
2023/11/08 06:17:53;;;;;;;13.13;7.13;;;7.70;99.90;;;;;;5050906;28;20124;-67
2023/11/08 06:20:21;;;;;;;8.75;5.85;;;7.70;99.90;;;;;;5056316;28;20032;-62
2023/11/08 06:22:49;;;;;;;19.90;7.35;;;7.70;99.90;;;;;;5052046;28;20415;-68
2023/11/08 06:25:16;;;;;;;8.68;6.05;;;7.70;99.90;;;;;;5058893;28;20072;-63
2023/11/08 06:27:43;;;;;;;12.23;6.80;;;7.70;99.90;;;;;;5052280;28;20040;-64
2023/11/08 06:30:11;;;;;;;14.68;7.78;;;7.70;99.90;;;;;;5044744;28;20068;-63
2023/11/08 06:32:38;;;;;;;12.68;8.02;;;7.80;99.90;;;;;;5057063;28;20866;-67
2023/11/08 06:35:06;;;;;;;15.50;8.38;;;7.70;99.90;;;;;;5056266;28;20032;-61
2023/11/08 06:37:33;;;;;;;13.38;9.65;;;7.70;99.90;;;;;;5049820;28;20037;-62
2023/11/08 06:40:00;;;;;;;11.38;8.80;;;7.80;99.90;;;;;;5056049;28;20033;-62
2023/11/08 06:42:27;;;;;;;16.90;10.15;;;7.70;99.90;;;;;;5055070;28;20056;-61
2023/11/08 06:44:54;;;;;;;14.02;10.38;;;7.70;99.90;;;;;;5052601;28;20045;-63
2023/11/08 06:47:21;;;;;;;11.02;8.70;;;7.70;99.90;;;;;;5052634;28;20043;-61
2023/11/08 06:49:47;;;;;;;18.20;9.30;;;7.70;99.90;;;;;;5050159;28;20623;-61
2023/11/08 06:52:14;;;;;;;13.60;8.77;;;7.70;99.90;;;;;;5054653;28;20132;-68
2023/11/08 06:54:42;;;;;;;15.65;9.77;;;7.70;99.90;;;;;;5051562;28;20479;-61
2023/11/08 06:57:11;;;;;;;12.15;8.20;;;7.70;99.90;;;;;;5050851;28;20131;-61
2023/11/08 06:59:38;;;;;;;9.07;7.13;;;7.60;99.90;;;;;;5050974;28;20455;-64
2023/11/08 07:02:06;;;;;;;12.88;7.90;;;7.60;99.90;;;;;;5053744;28;20127;-64
2023/11/08 07:04:33;;;;;;;12.48;7.90;;;7.70;99.90;;;;;;5052926;28;20114;-66
2023/11/08 07:07:01;;;;;;;13.45;7.05;;;7.70;99.90;;;;;;5055619;28;20049;-65
2023/11/08 07:09:29;;;;;;;16.13;7.63;;;7.80;99.90;;;;;;5054088;28;20417;-61
2023/11/08 07:11:57;;;;;;;12.45;7.28;;;7.80;99.90;;;;;;5054822;28;20391;-60
2023/11/08 07:14:24;;;;;;;11.25;7.18;;;7.90;99.90;;;;;;5048831;28;20091;-62
2023/11/08 07:16:51;;;;;;;13.77;8.20;;;7.90;99.90;;;;;;5050181;28;20068;-65
2023/11/08 07:19:18;;;;;;;10.48;7.53;;;7.90;99.90;;;;;;5053719;28;20045;-62
2023/11/08 07:21:45;;;;;;;11.60;6.35;;;7.90;99.90;;;;;;5050411;28;20033;-66
2023/11/08 07:24:12;;;;;;;12.45;6.60;;;7.90;99.90;;;;;;5047985;28;20045;-65
2023/11/08 07:26:39;;;;;;;11.93;6.95;;;7.90;99.90;;;;;;5051134;28;20041;-61
2023/11/08 07:29:07;;;;;;;13.15;6.38;;;7.90;99.90;;;;;;5051063;28;20049;-64
2023/11/08 07:31:37;;;;;;;11.73;7.80;;;7.90;99.90;;;;;;5052891;28;20068;-61
2023/11/08 07:34:07;;;;;;;9.32;6.65;;;7.90;99.90;;;;;;5050497;28;20087;-61
2023/11/08 07:36:34;;;;;;;11.73;6.18;;;7.90;99.90;;;;;;5052458;28;20036;-60
2023/11/08 07:39:04;;;;;;;13.48;7.35;;;7.90;99.90;;;;;;5049561;28;20033;-65
2023/11/08 07:41:33;;;;;;;9.07;5.45;;;8.00;99.90;;;;;;5048655;28;20045;-61
2023/11/08 07:44:02;;;;;;;9.13;6.25;;;8.00;99.90;;;;;;5056094;28;20513;-65
2023/11/08 07:46:30;;;;;;;9.30;6.68;;;8.00;99.90;;;;;;5051398;28;20475;-70
2023/11/08 07:48:57;;;;;;;9.75;6.35;;;8.10;99.90;;;;;;5054517;28;20037;-62
2023/11/08 07:51:28;;;;;;;8.75;5.22;;;8.10;99.90;;;;;;5060296;28;20053;-63
2023/11/08 07:53:59;;;;;;;13.82;6.38;;;8.10;99.90;;;;;;5048087;28;20044;-60
2023/11/08 07:56:26;;;;;;;10.60;4.95;;;8.10;99.90;;;;;;5049312;28;20491;-61
2023/11/08 07:58:53;;;;;;;8.95;5.40;;;8.20;99.90;;;;;;5052825;28;20494;-65
2023/11/08 08:01:20;;;;;;;8.70;5.60;;;8.20;99.90;;;;;;5046474;28;20045;-66
2023/11/08 08:03:48;;;;;;;13.80;5.25;;;8.30;99.90;;;;;;5048575;28;20048;-65
2023/11/08 08:06:15;;;;;;;8.52;5.60;;;8.30;99.90;;;;;;5047412;28;20060;-64
2023/11/08 08:08:43;;;;;;;8.27;5.53;;;8.30;99.90;;;;;;5051907;28;20044;-61
2023/11/08 08:11:12;;;;;;;9.95;5.30;;;8.40;99.90;;;;;;5047821;28;20092;-64
2023/11/08 08:13:39;;;;;;;10.85;6.20;;;8.40;99.90;;;;;;5048175;28;20033;-60
2023/11/08 08:16:06;;;;;;;6.97;5.25;;;8.30;99.90;;;;;;5047814;28;20049;-61
2023/11/08 08:18:33;;;;;;;5.97;4.95;;;8.40;99.90;;;;;;5048219;28;20037;-62
2023/11/08 08:21:00;;;;;;;8.23;5.50;;;8.30;99.90;;;;;;5050013;28;20546;-62
2023/11/08 08:23:28;;;;;;;10.77;5.03;;;8.30;99.90;;;;;;5057436;28;20052;-61
2023/11/08 08:25:56;;;;;;;11.65;5.28;;;8.30;99.90;;;;;;5049079;28;20102;-62
2023/11/08 08:28:24;;;;;;;7.78;5.28;;;8.30;99.90;;;;;;5049284;28;20041;-64
2023/11/08 08:30:51;;;;;;;13.73;5.70;;;8.40;99.90;;;;;;5054876;28;20679;-63
2023/11/08 08:33:18;;;;;;;6.68;4.50;;;8.50;99.90;;;;;;5031472;28;20498;-60
2023/11/08 08:35:44;;;;;;;11.90;4.85;;;8.50;99.90;;;;;;5055312;28;20064;-61
2023/11/08 08:38:11;;;;;;;7.32;4.03;;;8.60;99.90;;;;;;5050515;28;20037;-64
2023/11/08 08:40:38;;;;;;;4.78;4.13;;;8.60;99.90;;;;;;5047678;28;20052;-61
2023/11/08 08:43:05;;;;;;;6.70;4.22;;;8.70;99.90;;;;;;5051953;28;20048;-63
2023/11/08 08:45:33;;;;;;;8.82;3.83;;;8.80;99.90;;;;;;5050280;28;20050;-65
2023/11/08 08:48:00;;;;;;;7.63;3.63;;;8.80;99.90;;;;;;5051491;28;20483;-64
2023/11/08 08:50:28;;;;;;;4.63;3.35;;;8.80;99.90;;;;;;5050022;28;20044;-60
2023/11/08 08:52:55;;;;;;;10.02;4.22;;;8.80;99.90;;;;;;5045154;28;20047;-62
2023/11/08 08:55:22;;;;;;;7.30;3.35;;;8.80;99.90;;;;;;5053020;28;20033;-62
2023/11/08 08:57:49;;;;;;;10.23;4.53;;;8.70;99.90;;;;;;5054372;28;20048;-68
2023/11/08 09:00:19;;;;;;;8.05;3.50;;;8.70;99.90;;;;;;5050179;28;20414;-62
2023/11/08 09:02:47;;;;;;;6.30;2.83;;;8.70;99.90;;;;;;5051806;28;20049;-64
2023/11/08 09:05:18;;;;;;;9.80;3.65;;;8.80;99.90;;;;;;5050211;28;20521;-62
2023/11/08 09:07:47;;;;;;;9.60;3.10;;;8.80;99.90;;;;;;5047950;28;20041;-65
2023/11/08 09:10:15;;;;;;;7.70;4.25;;;8.80;99.90;;;;;;5050509;28;20435;-61
2023/11/08 09:12:42;;;;;;;10.10;3.75;;;8.80;99.90;;;;;;5049194;28;20045;-62
2023/11/08 09:15:11;;;;;;;9.07;4.22;;;8.80;99.90;;;;;;5056260;28;20028;-61
2023/11/08 09:17:39;;;;;;;6.35;3.05;;;8.80;99.90;;;;;;5048194;28;20098;-65
2023/11/08 09:20:09;;;;;;;7.47;3.38;;;8.80;99.90;;;;;;5050078;28;20047;-64
2023/11/08 09:22:37;;;;;;;8.13;3.53;;;8.80;99.90;;;;;;5055056;28;20049;-65
2023/11/08 09:25:07;;;;;;;4.22;3.35;;;8.90;99.90;;;;;;5055475;28;20037;-65
2023/11/08 09:27:35;;;;;;;8.00;3.85;;;8.90;99.90;;;;;;5051208;28;20061;-62
2023/11/08 09:30:04;;;;;;;7.72;3.85;;;8.90;99.90;;;;;;5054475;28;20041;-62
2023/11/08 09:32:32;;;;;;;4.53;2.63;;;9.00;99.90;;;;;;5055074;28;20049;-63
2023/11/08 09:34:59;;;;;;;5.35;2.95;;;9.10;99.90;;;;;;5053872;28;20120;-64
2023/11/08 09:37:27;;;;;;;3.55;2.60;;;9.10;99.90;;;;;;5052884;28;20080;-63
2023/11/08 09:39:56;;;;;;;5.47;2.50;;;9.10;99.90;;;;;;5049189;28;20045;-66
2023/11/08 09:42:26;;;;;;;4.72;2.17;;;9.10;99.90;;;;;;5057929;28;20045;-60
2023/11/08 09:44:58;;;;;;;8.27;4.00;;;9.20;99.90;;;;;;5054568;28;20057;-64
2023/11/08 09:47:25;;;;;;;4.40;2.42;;;9.30;99.90;;;;;;5050715;28;20068;-63
2023/11/08 09:49:54;;;;;;;3.65;2.25;;;9.30;99.90;;;;;;5052334;28;20478;-67
2023/11/08 09:52:23;;;;;;;5.28;2.47;;;9.30;99.90;;;;;;5051154;28;20040;-61
2023/11/08 09:54:50;;;;;;;11.57;3.13;;;9.40;99.90;;;;;;5051456;28;20041;-65
2023/11/08 09:57:21;;;;;;;5.13;2.70;;;9.40;99.90;;;;;;5053657;28;20043;-61
2023/11/08 09:59:49;;;;;;;9.35;3.33;;;9.40;99.90;;;;;;5055824;28;20045;-61
2023/11/08 10:02:18;;;;;;;4.75;3.38;;;9.40;99.90;;;;;;5058271;28;20406;-64
2023/11/08 10:04:45;;;;;;;6.40;3.10;;;9.50;99.90;;;;;;5050881;28;20053;-62
2023/11/08 10:07:14;;;;;;;8.35;5.35;;;9.50;99.90;;;;;;5054329;28;20045;-61
2023/11/08 10:09:41;;;;;;;5.82;3.30;;;9.60;99.90;;;;;;5055543;28;20050;-62
2023/11/08 10:12:09;;;;;;;7.80;2.95;;;9.60;99.90;;;;;;5056979;28;20049;-69
2023/11/08 10:14:43;;;;;;;5.95;3.50;;;9.60;99.90;;;;;;5046768;28;20033;-63
2023/11/08 10:17:10;;;;;;;10.48;3.38;;;9.60;99.90;;;;;;5051126;28;20079;-60
2023/11/08 10:19:57;;;;;;;3.60;3.28;;;9.60;99.90;;;;;;5055251;28;20076;-62
2023/11/08 10:22:26;;;;;;;6.78;4.15;;;9.70;99.90;;;;;;5055541;28;20041;-60
2023/11/08 10:25:00;;;;;;;6.40;2.90;;;9.70;99.90;;;;;;5053442;28;20127;-62
2023/11/08 10:27:29;;;;;;;6.85;3.90;;;9.70;99.90;;;;;;5051152;28;20107;-61
2023/11/08 10:30:13;;;;;;;6.40;3.38;;;9.60;99.90;;;;;;5051835;28;20129;-63
2023/11/08 10:32:40;;;;;;;5.63;3.53;;;9.70;99.90;;;;;;5048968;28;20060;-61
2023/11/08 10:35:19;;;;;;;6.03;3.67;;;9.70;99.90;;;;;;5054774;28;20479;-64
2023/11/08 10:37:48;;;;;;;10.48;5.75;;;9.70;99.90;;;;;;5048079;28;20151;-66
2023/11/08 10:40:16;;;;;;;9.23;4.47;;;9.70;99.90;;;;;;5055893;28;20394;-62
2023/11/08 10:42:55;;;;;;;5.60;3.42;;;9.70;99.90;;;;;;5046939;28;20041;-60
2023/11/08 10:45:23;;;;;;;4.53;3.90;;;9.70;99.90;;;;;;5053564;28;20057;-64
2023/11/08 10:47:50;;;;;;;10.48;5.10;;;9.70;99.90;;;;;;5053324;28;20445;-64
2023/11/08 10:50:18;;;;;;;4.20;3.53;;;9.70;99.90;;;;;;5049739;28;20479;-69
2023/11/08 10:52:48;;;;;;;5.82;3.05;;;9.70;99.90;;;;;;5053576;28;20442;-65
2023/11/08 10:55:16;;;;;;;6.55;3.65;;;9.80;99.90;;;;;;5048686;28;20049;-66
2023/11/08 10:57:52;;;;;;;6.40;3.60;;;9.80;99.90;;;;;;5052368;28;20087;-60
2023/11/08 11:00:22;;;;;;;7.88;3.85;;;9.80;99.90;;;;;;5056771;28;20138;-62
2023/11/08 11:02:52;;;;;;;6.85;3.75;;;9.80;99.90;;;;;;5051920;28;21597;-61
2023/11/08 11:05:22;;;;;;;8.32;4.53;;;9.80;99.90;;;;;;5049663;28;20118;-61
2023/11/08 11:07:52;;;;;;;9.15;4.32;;;9.80;99.90;;;;;;5040877;28;21432;-61
2023/11/08 11:10:20;;;;;;;6.13;4.05;;;9.70;99.90;;;;;;5058896;28;20044;-63
2023/11/08 11:13:11;;;;;;;6.97;3.72;;;9.70;99.90;;;;;;5047853;28;20044;-65
2023/11/08 11:16:12;;;;;;;5.78;3.90;;;9.70;99.90;;;;;;5049479;28;20510;-67
2023/11/08 11:18:54;;;;;;;5.13;3.55;;;9.60;99.90;;;;;;5053114;28;20084;-63
2023/11/08 11:21:27;;;;;;;7.20;3.95;;;9.60;99.90;;;;;;5055113;28;20045;-66
2023/11/08 11:23:54;;;;;;;5.88;3.95;;;9.50;99.90;;;;;;5053232;28;20036;-65
2023/11/08 11:26:44;;;;;;;5.60;3.55;;;9.50;99.90;;;;;;5050439;28;20041;-71
2023/11/08 11:29:18;;;;;;;10.77;4.25;;;9.50;99.90;;;;;;5049189;28;20090;-65
2023/11/08 11:31:45;;;;;;;7.70;3.83;;;9.50;99.90;;;;;;5046374;28;20052;-60
2023/11/08 11:34:31;;;;;;;7.60;3.35;;;9.50;99.90;;;;;;5050391;28;20136;-62
2023/11/08 11:39:32;;;;;;;8.23;3.40;;;9.50;99.90;;;;;;5054987;28;20053;-60
2023/11/08 11:42:00;;;;;;;7.53;3.05;;;9.60;99.90;;;;;;5051473;28;20064;-67
2023/11/08 11:44:37;;;;;;;8.07;4.43;;;9.60;99.90;;;;;;5055375;28;20048;-64
2023/11/08 11:47:15;;;;;;;6.78;2.97;;;9.70;99.90;;;;;;5050446;28;20072;-60
2023/11/08 11:49:48;;;;;;;3.85;3.35;;;9.70;99.90;;;;;;5053663;28;20079;-62
2023/11/08 11:52:21;;;;;;;5.80;3.13;;;9.80;99.90;;;;;;5054039;28;20509;-63
2023/11/08 11:54:52;;;;;;;6.78;3.03;;;9.80;99.90;;;;;;5046720;28;20098;-61
2023/11/08 11:57:24;;;;;;;8.88;3.88;;;9.90;99.90;;;;;;5050207;28;20453;-62
2023/11/08 11:59:56;;;;;;;10.65;2.88;;;10.00;99.90;;;;;;5056145;28;20041;-62
2023/11/08 12:02:25;;;;;;;7.65;3.78;;;10.00;99.90;;;;;;5036181;28;20095;-61
2023/11/08 12:04:52;;;;;;;3.67;2.40;;;10.00;99.90;;;;;;5055284;28;20098;-61
2023/11/08 12:07:19;;;;;;;5.93;2.88;;;10.00;99.90;;;;;;5048715;28;20060;-66
2023/11/08 12:09:48;;;;;;;5.78;3.80;;;10.10;99.90;;;;;;5049765;28;20037;-60
2023/11/08 12:12:33;;;;;;;5.38;2.13;;;10.00;99.90;;;;;;5051365;28;20076;-63
2023/11/08 12:15:18;;;;;;;3.50;1.98;;;10.00;99.90;;;;;;5043725;28;20059;-66
2023/11/08 12:17:53;;;;;;;7.65;3.22;;;10.00;99.90;;;;;;5049584;28;20047;-66
2023/11/08 12:20:24;;;;;;;2.90;2.35;;;9.90;99.90;;;;;;5048418;28;20487;-64
2023/11/08 12:22:52;;;;;;;6.28;2.35;;;9.90;99.90;;;;;;5052339;28;20037;-64
2023/11/08 12:25:20;;;;;;;6.90;3.15;;;9.90;99.90;;;;;;5047933;28;20475;-62
2023/11/08 12:27:49;;;;;;;9.40;2.88;;;9.90;99.90;;;;;;5051191;28;20057;-63
2023/11/08 12:30:23;;;;;;;8.88;3.70;;;9.80;99.90;;;;;;5049048;28;20909;-61
2023/11/08 12:32:51;;;;;;;3.47;2.30;;;9.80;99.90;;;;;;5046659;28;20071;-66
2023/11/08 12:35:18;;;;;;;5.07;2.70;;;9.80;99.90;;;;;;5048588;28;20571;-63
2023/11/08 12:37:45;;;;;;;6.32;2.63;;;9.70;99.90;;;;;;5045690;28;20036;-65
2023/11/08 12:40:23;;;;;;;3.85;2.55;;;9.70;99.90;;;;;;5046144;28;20060;-63
2023/11/08 12:42:53;;;;;;;8.20;3.40;;;9.70;99.90;;;;;;5047463;28;20159;-68
2023/11/08 12:45:40;;;;;;;9.82;2.90;;;9.70;99.90;;;;;;5047736;28;20069;-62
2023/11/08 12:48:31;;;;;;;5.50;2.95;;;9.60;99.90;;;;;;5050207;28;20132;-65
2023/11/08 12:51:02;;;;;;;10.27;3.80;;;9.50;99.90;;;;;;5046790;28;20076;-62
2023/11/08 12:53:33;;;;;;;8.20;3.25;;;9.50;99.90;;;;;;5047892;28;20102;-64
2023/11/08 12:56:02;;;;;;;14.38;3.38;;;9.30;99.90;;;;;;5045809;28;20410;-67
2023/11/08 12:58:33;;;;;;;4.93;3.22;;;9.30;99.90;;;;;;5050024;28;20041;-61
2023/11/08 13:01:02;;;;;;;5.93;3.42;;;9.20;99.90;;;;;;5048414;28;20711;-64
2023/11/08 13:03:35;;;;;;;8.73;3.95;;;9.20;99.90;;;;;;5052144;28;20041;-64